sensor_id;sensor_type;location;lat;lon;timestamp;temperature;humidity
19263;DHT22;9765;52.354;20.884;2022-09-27T06:14:41;11.90;99.90
19263;DHT22;9765;52.354;20.884;2022-09-27T06:17:08;11.90;99.90
19263;DHT22;9765;52.354;20.884;2022-09-27T06:19:34;11.90;99.90
19263;DHT22;9765;52.354;20.884;2022-09-27T06:22:01;12.00;99.90
19263;DHT22;9765;52.354;20.884;2022-09-27T06:24:29;11.90;99.90
19263;DHT22;9765;52.354;20.884;2022-09-27T06:26:55;11.90;99.90
19263;DHT22;9765;52.354;20.884;2022-09-27T06:29:22;12.00;99.90
19263;DHT22;9765;52.354;20.884;2022-09-27T06:31:50;12.00;99.90
19263;DHT22;9765;52.354;20.884;2022-09-27T06:34:20;12.00;99.90
19263;DHT22;9765;52.354;20.884;2022-09-27T06:36:48;12.00;99.90
19263;DHT22;9765;52.354;20.884;2022-09-27T06:39:15;12.10;99.90
19263;DHT22;9765;52.354;20.884;2022-09-27T06:41:41;12.10;99.90
19263;DHT22;9765;52.354;20.884;2022-09-27T06:44:08;12.00;99.90
19263;DHT22;9765;52.354;20.884;2022-09-27T06:46:36;12.00;99.90
19263;DHT22;9765;52.354;20.884;2022-09-27T06:49:05;12.10;99.90
19263;DHT22;9765;52.354;20.884;2022-09-27T06:51:36;12.10;99.90
19263;DHT22;9765;52.354;20.884;2022-09-27T06:54:03;12.10;99.90
19263;DHT22;9765;52.354;20.884;2022-09-27T06:56:35;12.20;99.90
19263;DHT22;9765;52.354;20.884;2022-09-27T06:59:01;12.20;99.90
19263;DHT22;9765;52.354;20.884;2022-09-27T07:01:45;12.20;99.90
19263;DHT22;9765;52.354;20.884;2022-09-27T07:04:13;12.30;99.90
19263;DHT22;9765;52.354;20.884;2022-09-27T07:06:40;12.30;99.90
19263;DHT22;9765;52.354;20.884;2022-09-27T07:09:07;12.60;99.90
19263;DHT22;9765;52.354;20.884;2022-09-27T07:11:34;12.20;99.90
19263;DHT22;9765;52.354;20.884;2022-09-27T07:14:01;12.20;99.90
19263;DHT22;9765;52.354;20.884;2022-09-27T07:16:29;12.20;99.90
19263;DHT22;9765;52.354;20.884;2022-09-27T07:18:55;12.20;99.90
19263;DHT22;9765;52.354;20.884;2022-09-27T07:21:23;12.10;99.90
19263;DHT22;9765;52.354;20.884;2022-09-27T07:23:50;12.10;99.90
19263;DHT22;9765;52.354;20.884;2022-09-27T07:26:17;12.10;99.90
19263;DHT22;9765;52.354;20.884;2022-09-27T07:28:43;12.00;99.90
19263;DHT22;9765;52.354;20.884;2022-09-27T07:31:11;12.00;99.90
19263;DHT22;9765;52.354;20.884;2022-09-27T07:33:38;12.00;99.90
19263;DHT22;9765;52.354;20.884;2022-09-27T07:36:06;12.00;99.90
19263;DHT22;9765;52.354;20.884;2022-09-27T07:38:34;11.90;99.90
19263;DHT22;9765;52.354;20.884;2022-09-27T07:41:05;11.80;99.90
19263;DHT22;9765;52.354;20.884;2022-09-27T07:43:31;11.80;99.90
19263;DHT22;9765;52.354;20.884;2022-09-27T07:45:58;11.90;99.90
19263;DHT22;9765;52.354;20.884;2022-09-27T07:48:25;11.90;99.90
19263;DHT22;9765;52.354;20.884;2022-09-27T07:50:52;11.80;99.90
19263;DHT22;9765;52.354;20.884;2022-09-27T07:53:19;11.90;99.90
19263;DHT22;9765;52.354;20.884;2022-09-27T07:55:50;11.90;99.90
19263;DHT22;9765;52.354;20.884;2022-09-27T07:58:18;11.90;99.90
19263;DHT22;9765;52.354;20.884;2022-09-27T08:00:46;11.90;99.90
19263;DHT22;9765;52.354;20.884;2022-09-27T08:03:14;11.90;99.90
19263;DHT22;9765;52.354;20.884;2022-09-27T08:05:41;12.00;99.90
19263;DHT22;9765;52.354;20.884;2022-09-27T08:08:08;12.00;99.90
19263;DHT22;9765;52.354;20.884;2022-09-27T08:10:39;12.00;99.90
19263;DHT22;9765;52.354;20.884;2022-09-27T08:13:10;12.00;99.90
19263;DHT22;9765;52.354;20.884;2022-09-27T08:15:37;12.10;99.90
19263;DHT22;9765;52.354;20.884;2022-09-27T08:18:05;12.10;99.90
19263;DHT22;9765;52.354;20.884;2022-09-27T08:20:33;12.20;99.90
19263;DHT22;9765;52.354;20.884;2022-09-27T08:23:00;12.20;99.90
19263;DHT22;9765;52.354;20.884;2022-09-27T08:25:28;12.30;99.90
19263;DHT22;9765;52.354;20.884;2022-09-27T08:27:56;12.30;99.90
19263;DHT22;9765;52.354;20.884;2022-09-27T08:30:24;12.30;99.90
19263;DHT22;9765;52.354;20.884;2022-09-27T08:32:54;12.30;99.90
19263;DHT22;9765;52.354;20.884;2022-09-27T08:35:21;12.40;99.90
19263;DHT22;9765;52.354;20.884;2022-09-27T08:37:52;12.40;99.90
19263;DHT22;9765;52.354;20.884;2022-09-27T08:40:20;12.40;99.90
19263;DHT22;9765;52.354;20.884;2022-09-27T08:42:57;12.50;99.90
19263;DHT22;9765;52.354;20.884;2022-09-27T08:45:30;12.60;99.90
19263;DHT22;9765;52.354;20.884;2022-09-27T08:48:00;12.70;99.90
19263;DHT22;9765;52.354;20.884;2022-09-27T08:50:29;12.70;99.90
19263;DHT22;9765;52.354;20.884;2022-09-27T08:53:03;12.70;99.90
19263;DHT22;9765;52.354;20.884;2022-09-27T08:55:34;12.90;99.90
19263;DHT22;9765;52.354;20.884;2022-09-27T08:58:08;12.90;99.90
19263;DHT22;9765;52.354;20.884;2022-09-27T09:00:38;13.00;99.90
19263;DHT22;9765;52.354;20.884;2022-09-27T09:03:07;13.10;99.90
19263;DHT22;9765;52.354;20.884;2022-09-27T09:05:36;13.10;99.90
19263;DHT22;9765;52.354;20.884;2022-09-27T09:08:29;13.30;99.90
19263;DHT22;9765;52.354;20.884;2022-09-27T09:11:03;13.30;99.90
19263;DHT22;9765;52.354;20.884;2022-09-27T09:14:17;13.30;99.90
19263;DHT22;9765;52.354;20.884;2022-09-27T09:16:54;14.00;99.90
19263;DHT22;9765;52.354;20.884;2022-09-27T09:19:37;13.40;99.90
19263;DHT22;9765;52.354;20.884;2022-09-27T09:22:24;13.40;99.90
19263;DHT22;9765;52.354;20.884;2022-09-27T09:25:11;13.60;99.90
19263;DHT22;9765;52.354;20.884;2022-09-27T09:27:44;13.60;99.90
19263;DHT22;9765;52.354;20.884;2022-09-27T09:30:19;13.70;99.90
19263;DHT22;9765;52.354;20.884;2022-09-27T09:33:00;13.80;99.90
19263;DHT22;9765;52.354;20.884;2022-09-27T09:35:35;14.00;99.90
19263;DHT22;9765;52.354;20.884;2022-09-27T09:38:10;14.00;99.90
19263;DHT22;9765;52.354;20.884;2022-09-27T09:40:40;14.00;99.90
19263;DHT22;9765;52.354;20.884;2022-09-27T09:43:12;14.10;99.90
19263;DHT22;9765;52.354;20.884;2022-09-27T09:45:43;14.20;99.90
19263;DHT22;9765;52.354;20.884;2022-09-27T09:48:27;14.60;99.90
19263;DHT22;9765;52.354;20.884;2022-09-27T09:50:58;14.30;99.90
19263;DHT22;9765;52.354;20.884;2022-09-27T09:53:33;14.40;99.90
19263;DHT22;9765;52.354;20.884;2022-09-27T09:56:04;14.30;99.90
19263;DHT22;9765;52.354;20.884;2022-09-27T09:58:38;14.40;99.90
19263;DHT22;9765;52.354;20.884;2022-09-27T10:01:13;14.40;99.90
19263;DHT22;9765;52.354;20.884;2022-09-27T10:03:44;14.50;99.90
19263;DHT22;9765;52.354;20.884;2022-09-27T10:06:11;14.40;99.90
19263;DHT22;9765;52.354;20.884;2022-09-27T10:08:38;14.40;99.90
19263;DHT22;9765;52.354;20.884;2022-09-27T10:11:06;14.40;99.90
19263;DHT22;9765;52.354;20.884;2022-09-27T10:13:35;14.60;99.90
19263;DHT22;9765;52.354;20.884;2022-09-27T10:16:04;14.30;99.90
19263;DHT22;9765;52.354;20.884;2022-09-27T10:18:34;14.40;99.90
19263;DHT22;9765;52.354;20.884;2022-09-27T10:21:07;14.40;99.90
19263;DHT22;9765;52.354;20.884;2022-09-27T10:23:35;14.40;99.90
19263;DHT22;9765;52.354;20.884;2022-09-27T10:26:22;14.40;99.90
19263;DHT22;9765;52.354;20.884;2022-09-27T10:28:49;14.50;99.90
19263;DHT22;9765;52.354;20.884;2022-09-27T10:31:18;14.50;99.90
19263;DHT22;9765;52.354;20.884;2022-09-27T10:33:52;14.50;99.90
19263;DHT22;9765;52.354;20.884;2022-09-27T10:36:26;14.50;99.90
19263;DHT22;9765;52.354;20.884;2022-09-27T10:38:55;14.60;99.90
19263;DHT22;9765;52.354;20.884;2022-09-27T10:41:31;14.50;99.90
19263;DHT22;9765;52.354;20.884;2022-09-27T10:44:20;14.40;99.90
19263;DHT22;9765;52.354;20.884;2022-09-27T10:46:50;14.30;99.90
19263;DHT22;9765;52.354;20.884;2022-09-27T10:49:20;14.30;99.90
19263;DHT22;9765;52.354;20.884;2022-09-27T10:51:50;14.20;99.90
19263;DHT22;9765;52.354;20.884;2022-09-27T10:54:20;14.20;99.90
19263;DHT22;9765;52.354;20.884;2022-09-27T10:56:54;14.30;99.90
19263;DHT22;9765;52.354;20.884;2022-09-27T10:59:23;14.30;99.90
19263;DHT22;9765;52.354;20.884;2022-09-27T11:01:51;14.30;99.90
19263;DHT22;9765;52.354;20.884;2022-09-27T11:04:20;14.30;99.90
19263;DHT22;9765;52.354;20.884;2022-09-27T11:06:48;14.30;99.90
19263;DHT22;9765;52.354;20.884;2022-09-27T11:09:20;14.40;99.90
19263;DHT22;9765;52.354;20.884;2022-09-27T11:12:04;14.20;99.90
19263;DHT22;9765;52.354;20.884;2022-09-27T11:14:32;14.10;99.90
19263;DHT22;9765;52.354;20.884;2022-09-27T11:17:07;14.20;99.90
19263;DHT22;9765;52.354;20.884;2022-09-27T11:25:37;14.20;99.90
19263;DHT22;9765;52.354;20.884;2022-09-27T11:28:18;14.10;99.90
19263;DHT22;9765;52.354;20.884;2022-09-27T11:30:56;14.00;99.90
19263;DHT22;9765;52.354;20.884;2022-09-27T11:36:36;13.80;99.90
19263;DHT22;9765;52.354;20.884;2022-09-27T11:39:14;13.80;99.90
19263;DHT22;9765;52.354;20.884;2022-09-27T11:41:56;13.80;99.90
19263;DHT22;9765;52.354;20.884;2022-09-27T11:44:53;13.80;99.90
19263;DHT22;9765;52.354;20.884;2022-09-27T11:47:33;13.90;99.90
19263;DHT22;9765;52.354;20.884;2022-09-27T11:50:48;13.90;99.90
19263;DHT22;9765;52.354;20.884;2022-09-27T11:53:30;13.80;99.90
19263;DHT22;9765;52.354;20.884;2022-09-27T11:56:05;13.90;99.90
19263;DHT22;9765;52.354;20.884;2022-09-27T11:58:39;14.00;99.90
19263;DHT22;9765;52.354;20.884;2022-09-27T12:01:17;14.10;99.90
19263;DHT22;9765;52.354;20.884;2022-09-27T12:04:14;14.20;99.90
19263;DHT22;9765;52.354;20.884;2022-09-27T12:06:50;14.20;99.90
19263;DHT22;9765;52.354;20.884;2022-09-27T12:09:20;14.20;99.90
19263;DHT22;9765;52.354;20.884;2022-09-27T12:11:50;14.10;99.90
19263;DHT22;9765;52.354;20.884;2022-09-27T12:14:22;14.10;99.90
19263;DHT22;9765;52.354;20.884;2022-09-27T12:16:51;14.10;99.90
19263;DHT22;9765;52.354;20.884;2022-09-27T12:19:23;14.20;99.90
19263;DHT22;9765;52.354;20.884;2022-09-27T12:21:52;14.40;99.90
19263;DHT22;9765;52.354;20.884;2022-09-27T12:24:21;14.40;99.90
19263;DHT22;9765;52.354;20.884;2022-09-27T12:26:51;14.40;99.90
19263;DHT22;9765;52.354;20.884;2022-09-27T12:29:22;14.50;99.90
19263;DHT22;9765;52.354;20.884;2022-09-27T12:31:56;14.60;99.90
19263;DHT22;9765;52.354;20.884;2022-09-27T12:34:34;14.80;99.90
19263;DHT22;9765;52.354;20.884;2022-09-27T12:37:07;14.80;99.90
19263;DHT22;9765;52.354;20.884;2022-09-27T12:39:42;14.80;99.90
19263;DHT22;9765;52.354;20.884;2022-09-27T12:42:16;14.80;99.90
19263;DHT22;9765;52.354;20.884;2022-09-27T12:44:44;14.80;99.90
19263;DHT22;9765;52.354;20.884;2022-09-27T12:50:04;14.80;99.90
19263;DHT22;9765;52.354;20.884;2022-09-27T12:52:40;14.90;99.90
19263;DHT22;9765;52.354;20.884;2022-09-27T12:55:23;14.90;99.90
19263;DHT22;9765;52.354;20.884;2022-09-27T12:58:12;14.80;99.90
19263;DHT22;9765;52.354;20.884;2022-09-27T13:00:45;14.70;99.90
19263;DHT22;9765;52.354;20.884;2022-09-27T13:03:30;14.80;99.90
19263;DHT22;9765;52.354;20.884;2022-09-27T13:06:26;14.90;99.90
19263;DHT22;9765;52.354;20.884;2022-09-27T13:12:01;14.60;99.90
19263;DHT22;9765;52.354;20.884;2022-09-27T13:14:34;14.60;99.90
19263;DHT22;9765;52.354;20.884;2022-09-27T13:17:04;14.60;99.90
19263;DHT22;9765;52.354;20.884;2022-09-27T13:19:39;14.70;99.90
19263;DHT22;9765;52.354;20.884;2022-09-27T13:22:10;14.70;99.90
19263;DHT22;9765;52.354;20.884;2022-09-27T13:24:56;14.70;99.90
19263;DHT22;9765;52.354;20.884;2022-09-27T13:27:41;14.60;99.90
19263;DHT22;9765;52.354;20.884;2022-09-27T13:33:21;14.90;99.90
19263;DHT22;9765;52.354;20.884;2022-09-27T13:36:27;15.00;99.90
19263;DHT22;9765;52.354;20.884;2022-09-27T13:39:16;15.00;99.90
19263;DHT22;9765;52.354;20.884;2022-09-27T13:42:07;15.10;99.90
19263;DHT22;9765;52.354;20.884;2022-09-27T13:44:44;15.10;99.90
19263;DHT22;9765;52.354;20.884;2022-09-27T13:47:28;15.10;99.90
19263;DHT22;9765;52.354;20.884;2022-09-27T13:50:12;15.00;99.90
19263;DHT22;9765;52.354;20.884;2022-09-27T13:52:44;15.00;99.90
19263;DHT22;9765;52.354;20.884;2022-09-27T13:55:38;15.00;99.90
19263;DHT22;9765;52.354;20.884;2022-09-27T13:58:14;15.10;99.90
19263;DHT22;9765;52.354;20.884;2022-09-27T14:00:43;15.10;99.90
19263;DHT22;9765;52.354;20.884;2022-09-27T14:03:16;15.10;99.90
19263;DHT22;9765;52.354;20.884;2022-09-27T14:05:46;15.20;99.90
19263;DHT22;9765;52.354;20.884;2022-09-27T14:08:21;15.20;99.90
19263;DHT22;9765;52.354;20.884;2022-09-27T14:10:52;15.10;99.90
19263;DHT22;9765;52.354;20.884;2022-09-27T14:13:21;15.10;99.90
19263;DHT22;9765;52.354;20.884;2022-09-27T14:15:50;15.10;99.90
19263;DHT22;9765;52.354;20.884;2022-09-27T14:18:17;15.00;99.90
19263;DHT22;9765;52.354;20.884;2022-09-27T14:20:45;15.00;99.90
19263;DHT22;9765;52.354;20.884;2022-09-27T14:23:17;15.00;99.90
19263;DHT22;9765;52.354;20.884;2022-09-27T14:25:45;14.90;99.90
19263;DHT22;9765;52.354;20.884;2022-09-27T14:28:22;14.90;99.90
19263;DHT22;9765;52.354;20.884;2022-09-27T14:31:04;15.10;99.90
19263;DHT22;9765;52.354;20.884;2022-09-27T14:33:32;14.90;99.90
19263;DHT22;9765;52.354;20.884;2022-09-27T14:36:00;14.90;99.90
19263;DHT22;9765;52.354;20.884;2022-09-27T14:38:47;14.90;99.90
19263;DHT22;9765;52.354;20.884;2022-09-27T14:41:15;14.90;99.90
19263;DHT22;9765;52.354;20.884;2022-09-27T14:43:44;14.90;99.90
19263;DHT22;9765;52.354;20.884;2022-09-27T14:46:24;14.80;99.90
19263;DHT22;9765;52.354;20.884;2022-09-27T14:48:52;14.90;99.90
19263;DHT22;9765;52.354;20.884;2022-09-27T14:51:25;14.70;99.90
19263;DHT22;9765;52.354;20.884;2022-09-27T14:53:56;14.80;99.90
19263;DHT22;9765;52.354;20.884;2022-09-27T14:56:42;14.80;99.90
19263;DHT22;9765;52.354;20.884;2022-09-27T14:59:14;14.80;99.90
19263;DHT22;9765;52.354;20.884;2022-09-27T15:01:47;14.80;99.90
19263;DHT22;9765;52.354;20.884;2022-09-27T15:04:14;14.80;99.90
19263;DHT22;9765;52.354;20.884;2022-09-27T15:06:42;14.80;99.90
19263;DHT22;9765;52.354;20.884;2022-09-27T15:09:11;14.80;99.90
19263;DHT22;9765;52.354;20.884;2022-09-27T15:11:39;14.80;99.90
19263;DHT22;9765;52.354;20.884;2022-09-27T15:14:12;14.80;99.90
19263;DHT22;9765;52.354;20.884;2022-09-27T15:16:40;14.80;99.90
19263;DHT22;9765;52.354;20.884;2022-09-27T15:19:14;14.80;99.90
19263;DHT22;9765;52.354;20.884;2022-09-27T15:21:41;14.80;99.90
19263;DHT22;9765;52.354;20.884;2022-09-27T15:24:36;14.80;99.90
19263;DHT22;9765;52.354;20.884;2022-09-27T15:27:03;14.80;99.90
19263;DHT22;9765;52.354;20.884;2022-09-27T15:29:34;14.70;99.90
19263;DHT22;9765;52.354;20.884;2022-09-27T15:32:03;14.70;99.90
19263;DHT22;9765;52.354;20.884;2022-09-27T15:34:34;14.70;99.90
19263;DHT22;9765;52.354;20.884;2022-09-27T15:37:02;14.70;99.90
19263;DHT22;9765;52.354;20.884;2022-09-27T15:39:32;14.70;99.90
19263;DHT22;9765;52.354;20.884;2022-09-27T15:42:02;14.70;99.90
19263;DHT22;9765;52.354;20.884;2022-09-27T15:44:45;14.70;99.90
19263;DHT22;9765;52.354;20.884;2022-09-27T15:47:41;14.70;99.90
19263;DHT22;9765;52.354;20.884;2022-09-27T15:50:34;14.70;99.90
19263;DHT22;9765;52.354;20.884;2022-09-27T15:53:01;14.70;99.90
19263;DHT22;9765;52.354;20.884;2022-09-27T15:55:32;14.70;99.90
19263;DHT22;9765;52.354;20.884;2022-09-27T15:58:02;14.70;99.90
19263;DHT22;9765;52.354;20.884;2022-09-27T16:00:31;14.60;99.90
19263;DHT22;9765;52.354;20.884;2022-09-27T16:02:57;14.60;99.90
19263;DHT22;9765;52.354;20.884;2022-09-27T16:05:24;14.60;99.90
19263;DHT22;9765;52.354;20.884;2022-09-27T16:07:54;14.60;99.90
19263;DHT22;9765;52.354;20.884;2022-09-27T16:10:26;14.60;99.90
19263;DHT22;9765;52.354;20.884;2022-09-27T16:12:54;14.50;99.90
19263;DHT22;9765;52.354;20.884;2022-09-27T16:15:21;14.50;99.90
19263;DHT22;9765;52.354;20.884;2022-09-27T16:17:49;14.50;99.90
19263;DHT22;9765;52.354;20.884;2022-09-27T16:20:19;14.40;99.90
